WEATHER DATA

YESTERDAY
Time Temp. Dewp. Hum. Wind dir Wind speed Wind gust Bar. 1h Prec. 24h Prec.
00:09 3.5 2.2 91 270 0.3 0.8 1021.6 0.0000 0.0000
00:20 3.4 1.9 90 270 0.3 0.6 1021.9 0.0000 0.0000
00:30 3.3 1.8 90 0 0.6 1021.9 0.0000 0.0000
00:39 3.3 2 91 270 0.3 1.4 1021.6 0.0000 0.0000
00:50 3.4 2.1 91 270 0.3 0.6 1021.8 0.0000 0.0000
01:00 3.3 2 91 0 0.3 1021.5 0.0000 0.0000
01:10 3.2 1.9 91 0 0.8 1021.5 0.0000 0.0000
01:20 3.1 1.8 91 270 0.3 0.6 1021.5 0.0000 0.0000
01:32 2.9 1.6 91 0 0.6 1021.6 0.0000 0.0000
01:42 2.8 1.5 91 0 0.6 1021.7 0.0000 0.0000
01:52 2.7 1.4 91 0 0.6 1021.8 0.0000 0.0000
02:02 2.6 1.3 91 191 0.3 0.6 1022 0.0000 0.0000
02:12 2.5 1.2 91 270 0.3 1.4 1021.8 0.0000 0.0000
02:32 2.3 1.1 92 0 0.8 1021.7 0.0000 0.0000
02:42 2.3 1.1 92 315 0.3 0.6 1021.6 0.0000 0.0000
03:02 2.2 1 92 186 0.3 1.1 1021.5 0.0000 0.0000
03:12 2.2 1 92 203 0.3 1.1 1022 0.0000 0.0000
03:23 2.2 1.2 93 198 0.3 1.7 1021.4 0.0000 0.0000
03:33 2.2 1.2 93 270 0.3 0.8 1021.4 0.0000 0.0000
03:42 2.2 1.2 93 270 0.3 0.8 1021.3 0.0000 0.0000
03:52 2.1 1.1 93 270 0.3 0.8 1021.2 0.0000 0.0000
04:03 2.1 1.1 93 198 0.3 1.1 1021 0.0000 0.0000
04:13 2.1 1.1 93 270 0.3 0.8 1021.1 0.0000 0.0000
04:22 2.1 1.1 93 0 0.6 1021.1 0.0000 0.0000
04:33 2.2 1.2 93 270 0.3 0.8 1021 0.0000 0.0000
04:43 2.2 1.2 93 270 0.3 0.8 1021.1 0.0000 0.0000
04:53 2.2 1.2 93 236 0.3 0.8 1021 0.0000 0.0000
05:03 2.1 1.1 93 270 0.3 0.8 1021.1 0.0000 0.0000
05:13 2.1 1.1 93 270 0.3 1.1 1021.1 0.0000 0.0000
05:23 2.2 1.2 93 270 0.3 0.8 1021.1 0.0000 0.0000
05:33 2.2 1.2 93 0 0.6 1021.2 0.0000 0.0000
05:43 2.1 1.1 93 0 0.3 1021.2 0.0000 0.0000
05:53 2 1 93 270 0.3 0.6 1021.2 0.0000 0.0000
06:03 1.9 0.9 93 270 0.3 0.6 1021.3 0.0000 0.0000
06:13 1.8 0.6 92 234 0.3 0.8 1021 0.0000 0.0000
06:23 1.7 0.5 92 270 0.3 0.8 1021 0.0000 0.0000
06:33 1.6 0.4 92 225 0.3 0.6 1021 0.0000 0.0000
06:43 1.5 0.3 92 315 0.3 0.8 1021.4 0.0000 0.0000
06:54 1.4 0.4 93 198 0.3 0.8 1021.1 0.0000 0.0000
07:03 1.3 0.3 93 270 0.3 1.1 1021.5 0.0000 0.0000
07:13 1.3 0.3 93 270 0.3 0.8 1021.2 0.0000 0.0000
07:24 1.3 0.3 93 270 0.3 0.6 1021.2 0.0000 0.0000
07:34 1.3 0.3 93 0 0.3 1021.2 0.0000 0.0000
07:43 1.3 0.3 93 270 0.3 0.6 1021.3 0.0000 0.0000
07:53 1.3 0.3 93 0 0.8 1021.3 0.0000 0.0000
08:04 1.2 0.2 93 0 0.6 1021.3 0.0000 0.0000
08:14 1.2 0.2 93 0 0.6 1021.4 0.0000 0.0000
08:23 1.2 0.2 93 270 0.3 0.6 1021.6 0.0000 0.0000
08:34 1.2 0.2 93 0 0.6 1021.3 0.0000 0.0000
08:44 1.3 0.4 94 0 0.6 1021.7 0.0000 0.0000
08:54 1.2 0.2 93 315 0.3 1.7 1021.8 0.0000 0.0000
09:04 1.2 0.2 93 270 0.3 1.1 1021.7 0.0000 0.0000
09:14 1.3 0.4 94 198 0.3 0.8 1021.8 0.0000 0.0000
09:24 1.4 0.5 94 336 0.3 1.1 1022 0.0000 0.0000
09:34 1.5 0.6 94 225 0.3 0.6 1021.9 0.0000 0.0000
09:44 1.7 0.8 94 45 0.3 1.1 1022 0.0000 0.0000
09:55 1.8 0.9 94 155 0.6 1.7 1021.8 0.0000 0.0000
10:05 2.1 1.2 94 198 0.3 1.4 1021.8 0.0000 0.0000
10:15 2.4 1.5 94 270 0.3 1.1 1021.7 0.0000 0.0000
10:25 2.8 1.9 94 0 0.6 1021.5 0.0000 0.0000
10:36 3.3 2.6 95 270 0.3 0.8 1021.5 0.0000 0.0000
10:45 3.7 2.8 94 194 0.3 1.1 1021.6 0.0000 0.0000
10:55 4.1 3.1 93 315 0.6 1.4 1021.4 0.0000 0.0000
11:06 4.4 3.4 93 180 0.3 1.9 1021.5 0.0000 0.0000
11:16 4.8 3.8 93 305 0.3 1.4 1021.5 0.0000 0.0000
11:26 5.1 3.9 92 315 0.6 1.7 1021.6 0.0000 0.0000
11:36 5.4 4.1 91 161 0.6 1.9 1021.6 0.0000 0.0000
11:46 5.7 4.2 90 171 0.6 2.2 1021.1 0.0000 0.0000
11:56 6 4.5 90 296 0.6 1.9 1021 0.0000 0.0000
12:06 6.3 4.6 89 154 0.8 1.9 1020.9 0.0000 0.0000
12:17 6.6 4.8 88 167 0.6 1.7 1020.9 0.0000 0.0000
12:27 6.9 4.9 87 151 0.6 2.2 1020.6 0.0000 0.0000
12:36 7.1 4.9 86 156 0.8 3.3 1020.5 0.0000 0.0000
12:46 7.4 5.2 86 123 0.6 1.1 1020.3 0.0000 0.0000
12:57 7.7 5 83 151 0.8 2.2 1020.1 0.0000 0.0000
13:07 7.9 5.2 83 149 0.6 1.7 1020 0.0000 0.0000
13:17 8.2 5.5 83 147 0.3 1.4 1019.9 0.0000 0.0000
13:27 8.4 5.5 82 147 0.8 2.2 1019.7 0.0000 0.0000
13:38 8.7 5.6 81 198 0.6 1.7 1019.8 0.0000 0.0000
13:48 9 5.7 80 161 0.8 2.8 1019.5 0.0000 0.0000
13:57 9.2 5.8 79 176 0.8 2.2 1019.5 0.0000 0.0000
14:08 9.4 5.9 79 310 0.6 1.9 1019.4 0.0000 0.0000
14:18 9.5 5.7 77 198 0.8 2.2 1019.4 0.0000 0.0000
14:28 9.4 5.4 76 152 1.1 2.8 1019.3 0.0000 0.0000
14:38 9.4 5.4 76 149 0.6 1.7 1019.4 0.0000 0.0000
14:49 9.4 5.4 76 168 0.6 1.9 1019.5 0.0000 0.0000
14:59 9.3 5.1 75 153 1.1 2.8 1019.3 0.0000 0.0000
15:09 9.2 5 75 169 0.6 2.2 1019.3 0.0000 0.0000
15:19 9.2 5 75 154 0.6 2.2 1019.6 0.0000 0.0000
15:29 9.1 5.1 76 171 0.6 1.9 1019.5 0.0000 0.0000
15:39 9 4.8 75 148 0.8 3.1 1019.2 0.0000 0.0000
15:49 8.9 4.7 75 155 0.8 1.9 1019.1 0.0000 0.0000
16:00 8.7 4.5 75 158 0.6 1.9 1019.5 0.0000 0.0000
16:10 8.6 4.4 75 169 0.6 1.9 1019.2 0.0000 0.0000
16:19 8.4 4 74 203 0.6 1.7 1019.1 0.0000 0.0000
16:29 8.3 4.1 75 159 0.3 1.4 1019.1 0.0000 0.0000
16:40 8.1 3.8 74 0.3 1.9 1019.4 0.0000 0.0000
16:50 7.9 3.6 74 174 0.6 1.9 1019.7 0.0000 0.0000
17:00 7.6 3.1 73 164 0.6 1.7 1019.3 0.0000 0.0000
17:06 7.5 3 73 206 0.3 1.9 1019.5 0.0000 0.0000
17:20 7.1 2.8 74 164 0.6 1.7 1019.6 0.0000 0.0000
17:30 6.8 2.5 74 169 0.6 1.7 1019.7 0.0000 0.0000
17:40 6.5 2.4 75 153 0.6 1.7 1019.6 0.0000 0.0000
17:50 6.2 2.1 75 163 0.6 2.5 1019.3 0.0000 0.0000
18:00 5.9 2 76 161 0.6 2.5 1019.8 0.0000 0.0000
18:10 5.7 1.8 76 239 0.3 1.1 1019.7 0.0000 0.0000
18:21 5.4 1.7 77 175 0.3 1.4 1019.7 0.0000 0.0000
18:31 5.3 1.6 77 225 0.3 1.7 1019.6 0.0000 0.0000
18:41 5.1 1.6 78 182 0.6 1.7 1019.7 0.0000 0.0000
18:51 4.9 1.4 78 201 0.3 0.8 1019.6 0.0000 0.0000
19:01 4.8 1.5 79 225 0.3 1.1 1019.5 0.0000 0.0000
19:11 4.6 1.3 79 0 0.6 1019.3 0.0000 0.0000
19:21 4.5 1.4 80 0 0.6 1019.4 0.0000 0.0000
19:31 4.3 1.2 80 0 0.6 1019.5 0.0000 0.0000
19:42 4.1 1 80 234 0.3 0.6 1019.2 0.0000 0.0000
19:51 3.9 0.9 81 270 0.3 0.6 1019.3 0.0000 0.0000
19:56 3.8 0.8 81 0 0.3 1019.1 0.0000 0.0000
20:06 3.6 0.6 81 0 0.6 1018.8 0.0000 0.0000
20:17 3.5 0.7 82 0 0.3 1018.9 0.0000 0.0000
20:33 3.1 0.3 82 0 0.3 1018.6 0.0000 0.0000
20:39 2.9 0.1 82 0 0.3 1018.7 0.0000 0.0000
20:48 2.7 -0.1 82 0 0.3 1018.7 0.0000 0.0000
20:59 2.6 0 83 225 0.3 0.8 1018.5 0.0000 0.0000
21:09 2.5 0.1 84 165 0.3 0.8 1018.7 0.0000 0.0000
21:19 2.4 0.1 85 186 0.3 1.4 1018.8 0.0000 0.0000
21:28 2.4 0.1 85 270 0.3 1.1 1018.8 0.0000 0.0000
21:39 2.4 0.1 85 210 0.3 1.4 1018.7 0.0000 0.0000
21:49 2.4 0.1 85 180 0.3 0.8 1018.5 0.0000 0.0000
21:59 2.4 0.1 85 270 0.3 1.4 1018.5 0.0000 0.0000
22:09 2.4 0.3 86 180 0.3 1.1 1018.3 0.0000 0.0000
22:19 2.3 0.2 86 225 0.3 1.1 1018.3 0.0000 0.0000
22:29 2.3 0.2 86 225 0.3 0.8 1018.4 0.0000 0.0000
22:39 2.2 0.1 86 135 0.3 1.4 1018.6 0.0000 0.0000
22:50 2.2 0.1 86 180 0.3 1.4 1018.6 0.0000 0.0000
23:00 2.1 0 86 315 0.3 1.1 1018.4 0.0000 0.0000
23:10 2 0.1 87 206 0.3 1.1 1018.6 0.0000 0.0000
23:20 2 0.1 87 270 0.3 1.1 1018.5 0.0000 0.0000
23:30 1.9 0 87 270 0.3 0.8 1018.6 0.0000 0.0000
23:40 1.8 -0.1 87 270 0.3 0.8 1018.5 0.0000 0.0000
23:50 1.8 -0.1 87 302 0.3 0.8 1018 0.0000 0.0000

DAY STATISTIC

2018-11-18
TEMPERATURE
AVERAGE
4.1
HIGH
9.5
14:18
LOW
1.2
08:04
PRESSURE
AVERAGE
1020.3
HIGH
1022.0
02:02
LOW
1018.0
23:50
DEWPOINT
AVERAGE
2.0
HIGH
5.9
14:08
LOW
-0.1
20:48
HUMIDITY
AVERAGE
86
HIGH
95
10:36
LOW
73
17:00
WIND SPEED
AVERAGE
0.3
HIGH
1.1
14:28
WIND GUST
AVERAGE
1.2
HIGH
3.3
12:36
WIND DIRECTION
PREVAILING
S
27.1%
N
0.0
NE
0.7
E
0.0
SE
12.1
S
27.1
SW
10.0
W
22.9
NW
7.9
PRECIPITATION
RAIN HOUR
0.0
RAIN DAY
0.0
TEMPERATURE (°C)
LOW
1.2
HIGH
9.5
AVERAGE
4.1
PRESSURE (hpa)
LOW
1018.0
HIGH
1022.0
AVERAGE
1020.3
DEVICE